Time;durP1;ratioP1;P1;durP2;ratioP2;P2;SDS_P1;SDS_P2;PMS_P1;PMS_P2;Temp;Humidity;BMP_temperature;BMP_pressure;BME280_temperature;BME280_humidity;BME280_pressure;Samples;Min_cycle;Max_cycle;Signal;HPM_P1;HPM_P2
2021/03/20 00:01:28;;;;;;;0.40;0.40;;;0.00;99.90;;;;;;5094117;28;20172;-69
2021/03/20 00:03:55;;;;;;;0.40;0.40;;;0.00;99.90;;;;;;5092078;28;20280;-69
2021/03/20 00:06:24;;;;;;;0.30;0.30;;;0.00;99.90;;;;;;5083018;28;20219;-69
2021/03/20 00:08:52;;;;;;;0.40;0.40;;;0.00;99.90;;;;;;5073601;28;20228;-70
2021/03/20 00:11:19;;;;;;;0.30;0.30;;;0.10;99.90;;;;;;5078443;28;20178;-69
2021/03/20 00:13:46;;;;;;;0.75;0.75;;;0.10;99.90;;;;;;5093677;28;20164;-70
2021/03/20 00:16:12;;;;;;;0.40;0.40;;;0.10;99.90;;;;;;5093173;28;20201;-69
2021/03/20 00:18:39;;;;;;;0.30;0.30;;;0.00;99.90;;;;;;5093786;28;20285;-69
2021/03/20 00:21:05;;;;;;;0.40;0.40;;;-0.10;99.90;;;;;;5093514;28;20176;-70
2021/03/20 00:23:31;;;;;;;0.30;0.30;;;-0.10;99.90;;;;;;5093457;28;20206;-70
2021/03/20 00:25:57;;;;;;;0.40;0.40;;;0.00;99.90;;;;;;5092697;28;20674;-70
2021/03/20 00:28:25;;;;;;;0.40;0.40;;;-0.10;99.90;;;;;;5093610;28;20227;-69
2021/03/20 00:30:57;;;;;;;0.40;0.40;;;-0.10;99.90;;;;;;5093071;28;20172;-68
2021/03/20 00:33:23;;;;;;;0.40;0.40;;;-0.10;99.90;;;;;;5093689;28;20562;-68
2021/03/20 00:35:49;;;;;;;0.30;0.30;;;-0.20;99.90;;;;;;5092626;28;20192;-69
2021/03/20 00:38:16;;;;;;;0.30;0.30;;;-0.10;99.90;;;;;;5093707;28;20178;-71
2021/03/20 00:40:41;;;;;;;0.38;0.38;;;-0.20;99.90;;;;;;5093115;28;20183;-67
2021/03/20 00:43:08;;;;;;;0.40;0.40;;;-0.20;99.90;;;;;;5093635;28;20168;-68
2021/03/20 00:45:33;;;;;;;0.30;0.30;;;-0.30;99.90;;;;;;5092711;28;20211;-70
2021/03/20 00:48:09;;;;;;;0.40;0.40;;;-0.20;99.90;;;;;;5092882;28;20550;-68
2021/03/20 00:50:35;;;;;;;0.45;0.45;;;-0.20;99.90;;;;;;5096891;28;20217;-68
2021/03/20 00:53:01;;;;;;;0.43;0.43;;;-0.20;99.90;;;;;;5097318;28;20172;-69
2021/03/20 00:55:27;;;;;;;0.40;0.40;;;-0.20;99.90;;;;;;5097232;28;20190;-69
2021/03/20 00:57:53;;;;;;;0.60;0.60;;;-0.20;99.90;;;;;;5096105;28;20176;-69
2021/03/20 01:00:21;;;;;;;1.07;1.07;;;-0.30;99.90;;;;;;5096468;28;20746;-69
2021/03/20 01:02:47;;;;;;;0.43;0.43;;;-0.30;99.90;;;;;;5097613;28;20172;-69
2021/03/20 01:05:14;;;;;;;0.43;0.43;;;-0.30;99.90;;;;;;5096692;28;20604;-69
2021/03/20 01:07:40;;;;;;;0.68;0.68;;;-0.30;99.90;;;;;;5097016;28;20192;-69
2021/03/20 01:10:09;;;;;;;0.40;0.40;;;-0.40;99.90;;;;;;5097251;28;20172;-70
2021/03/20 01:12:34;;;;;;;0.40;0.40;;;-0.40;99.90;;;;;;5097358;28;20405;-70
2021/03/20 01:15:00;;;;;;;2.27;2.07;;;-0.40;99.90;;;;;;5096162;28;20244;-69
2021/03/20 01:17:26;;;;;;;0.40;0.40;;;-0.40;99.90;;;;;;5096460;28;20192;-70
2021/03/20 01:19:52;;;;;;;0.40;0.40;;;-0.40;99.90;;;;;;5097244;28;20197;-70
2021/03/20 01:22:18;;;;;;;0.30;0.30;;;-0.50;99.90;;;;;;5096914;28;20184;-69
2021/03/20 01:24:44;;;;;;;0.40;0.40;;;-0.40;99.90;;;;;;5096616;28;20183;-68
2021/03/20 01:27:09;;;;;;;0.30;0.30;;;-0.40;99.90;;;;;;5096538;28;20208;-68
2021/03/20 01:29:35;;;;;;;0.63;0.63;;;-0.40;99.90;;;;;;5096688;28;20418;-69
2021/03/20 01:32:00;;;;;;;0.40;0.40;;;-0.40;99.90;;;;;;5096814;28;20243;-68
2021/03/20 01:34:26;;;;;;;0.40;0.40;;;-0.50;99.90;;;;;;5096175;28;20630;-70
2021/03/20 01:36:52;;;;;;;0.40;0.40;;;-0.40;99.90;;;;;;5096763;28;20198;-69
2021/03/20 01:39:17;;;;;;;0.40;0.40;;;-0.50;99.90;;;;;;5096469;28;20187;-69
2021/03/20 01:41:44;;;;;;;0.50;0.50;;;-0.50;99.90;;;;;;5096836;28;20258;-71
2021/03/20 01:44:20;;;;;;;0.40;0.40;;;-0.50;99.90;;;;;;5095738;28;20175;-69
2021/03/20 01:46:52;;;;;;;1.15;0.85;;;-0.50;99.90;;;;;;5096508;28;20654;-68
2021/03/20 01:49:20;;;;;;;0.30;0.30;;;-0.50;99.90;;;;;;5092975;28;20168;-69
2021/03/20 01:51:59;;;;;;;0.40;0.40;;;-0.50;99.90;;;;;;5096251;28;20614;-68
2021/03/20 01:54:32;;;;;;;0.40;0.40;;;-0.40;99.90;;;;;;5091161;28;20177;-69
2021/03/20 01:56:58;;;;;;;0.40;0.40;;;-0.30;99.90;;;;;;5085396;28;20712;-69
2021/03/20 01:59:25;;;;;;;0.30;0.30;;;-0.30;99.90;;;;;;5075829;28;20173;-70
2021/03/20 02:01:50;;;;;;;0.30;0.30;;;-0.20;99.90;;;;;;5092652;28;20184;-69
2021/03/20 02:04:16;;;;;;;0.40;0.40;;;-0.10;99.90;;;;;;5095593;28;20179;-70
2021/03/20 02:06:42;;;;;;;0.30;0.30;;;0.00;99.90;;;;;;5095747;28;20666;-68
2021/03/20 02:09:09;;;;;;;0.30;0.30;;;0.00;99.90;;;;;;5095931;28;20184;-69
2021/03/20 02:11:41;;;;;;;0.30;0.30;;;0.10;99.90;;;;;;5095917;28;20457;-68
2021/03/20 02:14:17;;;;;;;0.40;0.40;;;0.20;99.90;;;;;;5075572;28;20195;-69
2021/03/20 02:17:00;;;;;;;0.40;0.40;;;0.30;99.90;;;;;;5092585;28;20352;-68
2021/03/20 02:19:54;;;;;;;0.50;0.50;;;0.30;99.90;;;;;;5094959;28;20164;-68
2021/03/20 02:22:29;;;;;;;0.60;0.60;;;0.50;99.90;;;;;;5091425;28;20206;-68
2021/03/20 02:25:28;;;;;;;0.30;0.30;;;0.50;99.90;;;;;;5095142;28;20175;-68
2021/03/20 02:28:19;;;;;;;0.30;0.30;;;0.60;99.90;;;;;;5096122;28;20196;-70
2021/03/20 02:31:06;;;;;;;0.30;0.30;;;0.70;99.90;;;;;;5095520;28;20176;-69
2021/03/20 02:33:49;;;;;;;0.30;0.30;;;0.80;99.90;;;;;;5095921;28;20657;-69
2021/03/20 02:36:48;;;;;;;0.40;0.40;;;0.80;99.90;;;;;;5073994;28;20196;-70
2021/03/20 02:39:32;;;;;;;0.30;0.30;;;0.80;99.90;;;;;;5086002;28;20176;-66
2021/03/20 02:42:18;;;;;;;1.00;1.00;;;0.90;99.90;;;;;;5099950;28;20249;-66
2021/03/20 02:44:56;;;;;;;0.30;0.30;;;0.90;99.90;;;;;;5097210;28;20492;-69
2021/03/20 02:47:34;;;;;;;0.30;0.30;;;1.00;99.90;;;;;;5096793;28;20194;-69
2021/03/20 02:50:13;;;;;;;0.30;0.30;;;1.00;99.90;;;;;;5095154;28;20187;-69
2021/03/20 02:52:49;;;;;;;0.30;0.30;;;0.90;99.90;;;;;;5094998;28;20168;-70
2021/03/20 02:55:39;;;;;;;0.30;0.30;;;1.00;99.90;;;;;;5094668;28;20184;-70
2021/03/20 02:58:10;;;;;;;0.30;0.30;;;0.90;99.90;;;;;;5095304;28;20165;-70
2021/03/20 03:00:44;;;;;;;0.30;0.30;;;0.80;99.90;;;;;;5094887;28;20176;-70
2021/03/20 03:03:11;;;;;;;0.30;0.30;;;0.80;99.90;;;;;;5094754;28;20178;-69
2021/03/20 03:05:44;;;;;;;0.40;0.40;;;0.80;99.90;;;;;;5094203;28;20231;-71
2021/03/20 03:08:30;;;;;;;0.30;0.30;;;0.90;99.90;;;;;;5093767;28;20667;-66
2021/03/20 03:11:03;;;;;;;0.30;0.30;;;0.90;99.90;;;;;;5094584;28;20187;-69
2021/03/20 03:13:34;;;;;;;0.40;0.40;;;0.90;99.90;;;;;;5092668;28;20187;-68
2021/03/20 03:16:09;;;;;;;0.45;0.45;;;0.90;99.90;;;;;;5094357;28;20561;-67
2021/03/20 03:18:57;;;;;;;0.40;0.40;;;0.80;99.90;;;;;;5095019;28;20200;-68
2021/03/20 03:21:27;;;;;;;0.40;0.40;;;0.90;99.90;;;;;;5094495;28;20191;-67
2021/03/20 03:23:53;;;;;;;0.80;0.80;;;0.90;99.90;;;;;;5092797;28;20180;-68
2021/03/20 03:26:39;;;;;;;0.40;0.40;;;0.90;99.90;;;;;;5094544;28;20200;-69
2021/03/20 03:29:10;;;;;;;0.40;0.40;;;0.90;99.90;;;;;;5094225;28;20177;-68
2021/03/20 03:31:43;;;;;;;0.43;0.43;;;0.80;99.90;;;;;;5092779;28;20179;-67
2021/03/20 03:34:37;;;;;;;0.30;0.30;;;0.80;99.90;;;;;;5074025;28;20172;-67
2021/03/20 03:37:08;;;;;;;0.40;0.40;;;0.80;99.90;;;;;;5077095;28;20735;-68
2021/03/20 03:39:43;;;;;;;0.30;0.30;;;0.80;99.90;;;;;;5094495;28;20172;-69
2021/03/20 03:42:11;;;;;;;0.30;0.30;;;0.70;99.90;;;;;;5094232;28;20168;-69
2021/03/20 03:44:37;;;;;;;0.50;0.50;;;0.70;99.90;;;;;;5093739;28;20258;-68
2021/03/20 03:47:03;;;;;;;0.30;0.30;;;0.70;99.90;;;;;;5093757;28;20203;-69
2021/03/20 03:49:29;;;;;;;0.43;0.43;;;0.70;99.90;;;;;;5094208;28;20171;-67
2021/03/20 03:51:54;;;;;;;0.30;0.30;;;0.70;99.90;;;;;;5093728;28;20410;-67
2021/03/20 03:54:20;;;;;;;0.50;0.50;;;0.60;99.90;;;;;;5093796;28;20219;-69
2021/03/20 03:56:57;;;;;;;0.30;0.30;;;0.70;99.90;;;;;;5093753;28;20195;-68
2021/03/20 03:59:35;;;;;;;0.38;0.38;;;0.70;99.90;;;;;;5093346;28;20229;-67
2021/03/20 04:02:21;;;;;;;0.30;0.30;;;0.60;99.90;;;;;;5093787;28;20203;-67
2021/03/20 04:05:08;;;;;;;0.30;0.30;;;0.70;99.90;;;;;;5093682;28;20195;-67
2021/03/20 04:07:58;;;;;;;0.30;0.30;;;0.60;99.90;;;;;;5093592;28;20202;-68
2021/03/20 04:10:34;;;;;;;1.13;1.02;;;0.70;99.90;;;;;;5094109;28;20558;-69
2021/03/20 04:13:20;;;;;;;0.30;0.30;;;0.70;99.90;;;;;;5093008;28;20175;-68
2021/03/20 04:16:03;;;;;;;0.35;0.35;;;0.60;99.90;;;;;;5093078;28;20207;-67
2021/03/20 04:18:55;;;;;;;0.30;0.30;;;0.60;99.90;;;;;;5090976;28;20176;-70
2021/03/20 04:21:30;;;;;;;0.30;0.30;;;0.50;99.90;;;;;;5092138;28;20164;-69
2021/03/20 04:24:20;;;;;;;1.40;1.30;;;0.40;99.90;;;;;;5093108;28;20213;-68
2021/03/20 04:26:49;;;;;;;0.30;0.30;;;0.40;99.90;;;;;;5093610;28;20227;-66
2021/03/20 04:29:45;;;;;;;0.30;0.30;;;0.30;99.90;;;;;;5093385;28;20168;-68
2021/03/20 04:32:21;;;;;;;0.30;0.30;;;0.20;99.90;;;;;;5093281;28;20176;-69
2021/03/20 04:35:04;;;;;;;0.40;0.40;;;0.20;99.90;;;;;;5092650;28;20187;-69
2021/03/20 04:37:37;;;;;;;0.35;0.35;;;0.20;99.90;;;;;;5093922;28;20664;-69
2021/03/20 04:40:08;;;;;;;0.30;0.30;;;0.20;99.90;;;;;;5093487;28;20600;-69
2021/03/20 04:42:37;;;;;;;0.30;0.30;;;0.10;99.90;;;;;;5093667;28;20173;-70
2021/03/20 04:45:08;;;;;;;0.40;0.40;;;0.10;99.90;;;;;;5092717;28;20176;-69
2021/03/20 04:47:38;;;;;;;0.50;0.50;;;0.00;99.90;;;;;;5092072;28;20219;-70
2021/03/20 04:50:14;;;;;;;0.40;0.40;;;-0.10;99.90;;;;;;5093314;28;20255;-68
2021/03/20 04:52:45;;;;;;;0.30;0.30;;;-0.10;99.90;;;;;;5093615;28;20171;-68
2021/03/20 04:55:12;;;;;;;0.30;0.30;;;-0.10;99.90;;;;;;5092757;28;20184;-70
2021/03/20 04:57:57;;;;;;;0.40;0.40;;;-0.10;99.90;;;;;;5093479;28;20246;-66
2021/03/20 05:00:33;;;;;;;0.40;0.40;;;-0.20;99.90;;;;;;5093194;28;20180;-68
2021/03/20 05:03:12;;;;;;;0.40;0.40;;;-0.20;99.90;;;;;;5092867;28;20179;-70
2021/03/20 05:05:40;;;;;;;0.30;0.30;;;-0.20;99.90;;;;;;5092051;28;20196;-70
2021/03/20 05:08:14;;;;;;;0.40;0.40;;;-0.30;99.90;;;;;;5093311;28;20550;-69
2021/03/20 05:11:08;;;;;;;0.30;0.30;;;-0.30;99.90;;;;;;5092954;28;20178;-71
2021/03/20 05:14:18;;;;;;;0.30;0.30;;;-0.30;99.90;;;;;;5063130;28;20237;-68
2021/03/20 05:16:51;;;;;;;0.30;0.30;;;-0.30;99.90;;;;;;5058391;28;20218;-69
2021/03/20 05:19:18;;;;;;;0.40;0.40;;;-0.30;99.90;;;;;;5091578;28;20182;-68
2021/03/20 05:21:46;;;;;;;0.30;0.30;;;-0.40;99.90;;;;;;5093017;28;20164;-68
2021/03/20 05:24:18;;;;;;;0.40;0.40;;;-0.40;99.90;;;;;;5092575;28;20168;-69
2021/03/20 05:26:44;;;;;;;0.40;0.40;;;-0.40;99.90;;;;;;5093151;28;20249;-67
2021/03/20 05:29:10;;;;;;;0.30;0.30;;;-0.40;99.90;;;;;;5093747;28;20172;-68
2021/03/20 05:31:36;;;;;;;0.37;0.37;;;-0.40;99.90;;;;;;5093404;28;20403;-68
2021/03/20 05:34:15;;;;;;;0.40;0.40;;;-0.40;99.90;;;;;;5092768;28;20422;-69
2021/03/20 05:36:40;;;;;;;0.30;0.30;;;-0.40;99.90;;;;;;5097797;28;20203;-69
2021/03/20 05:39:09;;;;;;;0.80;0.80;;;-0.30;99.90;;;;;;5096546;28;20250;-68
2021/03/20 05:41:42;;;;;;;0.50;0.50;;;-0.30;99.90;;;;;;5096567;28;20176;-69
2021/03/20 05:44:46;;;;;;;0.32;0.32;;;-0.20;99.90;;;;;;5096238;28;20574;-68
2021/03/20 05:47:32;;;;;;;0.93;0.93;;;-0.10;99.90;;;;;;5096499;28;20196;-70
2021/03/20 05:50:17;;;;;;;0.50;0.50;;;0.00;99.90;;;;;;5076258;28;20207;-69
2021/03/20 05:52:56;;;;;;;0.40;0.40;;;0.10;99.90;;;;;;5095178;28;20210;-69
2021/03/20 05:55:51;;;;;;;0.40;0.40;;;0.20;99.90;;;;;;5094862;28;20219;-70
2021/03/20 05:58:23;;;;;;;0.32;0.32;;;0.40;99.90;;;;;;5092082;28;20195;-70
2021/03/20 06:01:07;;;;;;;0.43;0.43;;;0.60;99.90;;;;;;5096070;28;20184;-67
2021/03/20 06:03:50;;;;;;;0.30;0.30;;;0.70;99.90;;;;;;5095872;28;20271;-70
2021/03/20 06:06:45;;;;;;;0.30;0.30;;;0.70;99.90;;;;;;5096126;28;20187;-68
2021/03/20 06:09:34;;;;;;;0.30;0.30;;;0.70;99.90;;;;;;5096018;28;20168;-69
2021/03/20 06:12:32;;;;;;;0.30;0.30;;;0.80;99.90;;;;;;5094699;28;20190;-71
2021/03/20 06:15:40;;;;;;;0.40;0.40;;;0.80;99.90;;;;;;5095724;28;20183;-69
2021/03/20 06:18:16;;;;;;;0.40;0.40;;;0.90;99.90;;;;;;5057760;28;20189;-69
2021/03/20 06:20:53;;;;;;;1.40;1.30;;;0.90;99.90;;;;;;5094629;28;20201;-68
2021/03/20 06:23:44;;;;;;;0.40;0.40;;;1.00;99.90;;;;;;5092640;28;20171;-70
2021/03/20 06:26:21;;;;;;;0.30;0.30;;;1.10;99.90;;;;;;5091007;28;20188;-69
2021/03/20 06:28:53;;;;;;;0.30;0.30;;;1.20;99.90;;;;;;5094055;28;20277;-68
2021/03/20 06:31:33;;;;;;;0.30;0.30;;;1.30;99.90;;;;;;5095553;28;20160;-71
2021/03/20 06:34:11;;;;;;;0.30;0.30;;;1.30;99.90;;;;;;5095067;28;20178;-68
2021/03/20 06:37:09;;;;;;;0.30;0.30;;;1.30;99.90;;;;;;5093417;28;20279;-68
2021/03/20 06:39:40;;;;;;;0.30;0.30;;;1.40;99.90;;;;;;5086638;28;20221;-70
2021/03/20 06:42:31;;;;;;;0.45;0.45;;;1.50;99.90;;;;;;5075778;28;20527;-68
2021/03/20 06:45:06;;;;;;;0.30;0.30;;;1.50;99.90;;;;;;5095095;28;20530;-66
2021/03/20 06:47:35;;;;;;;0.30;0.30;;;1.60;99.90;;;;;;5092802;28;20223;-69
2021/03/20 06:50:07;;;;;;;0.30;0.30;;;1.60;99.90;;;;;;5095186;28;20187;-69
2021/03/20 06:52:35;;;;;;;0.30;0.30;;;1.80;99.90;;;;;;5090711;28;20559;-70
2021/03/20 06:55:23;;;;;;;0.40;0.40;;;1.90;99.90;;;;;;5090269;28;20188;-69
2021/03/20 06:57:54;;;;;;;0.40;0.40;;;2.00;99.90;;;;;;5094737;28;20179;-71
2021/03/20 07:00:31;;;;;;;0.30;0.30;;;2.00;99.90;;;;;;5095369;28;20195;-71
2021/03/20 07:03:15;;;;;;;0.30;0.30;;;2.10;99.90;;;;;;5095044;28;20254;-72
2021/03/20 07:06:09;;;;;;;0.40;0.40;;;2.40;99.90;;;;;;5092230;28;20222;-69
2021/03/20 07:08:58;;;;;;;0.40;0.40;;;2.50;99.90;;;;;;5087085;28;20227;-68
2021/03/20 07:11:40;;;;;;;0.73;0.73;;;2.60;99.90;;;;;;5084760;28;20287;-67
2021/03/20 07:14:42;;;;;;;0.35;0.35;;;2.80;99.90;;;;;;5089090;28;20676;-69
2021/03/20 07:17:24;;;;;;;1.67;1.58;;;3.00;99.90;;;;;;5092989;28;20211;-70
2021/03/20 07:20:09;;;;;;;1.23;0.70;;;3.20;99.90;;;;;;5094911;28;20666;-67
2021/03/20 07:22:49;;;;;;;0.30;0.30;;;3.30;99.90;;;;;;5093184;28;20180;-66
2021/03/20 07:25:38;;;;;;;0.30;0.30;;;3.50;99.90;;;;;;5094239;28;20192;-69
2021/03/20 07:28:12;;;;;;;0.38;0.38;;;3.50;99.30;;;;;;5094138;28;20207;-66
2021/03/20 07:30:52;;;;;;;0.60;0.60;;;3.70;99.00;;;;;;5094815;28;20657;-69
2021/03/20 07:33:25;;;;;;;0.40;0.40;;;4.10;98.00;;;;;;5094301;28;20180;-66
2021/03/20 07:35:51;;;;;;;0.30;0.30;;;4.30;97.10;;;;;;5094106;28;20270;-67
2021/03/20 07:38:26;;;;;;;0.30;0.30;;;4.30;96.50;;;;;;5092799;28;20183;-68
2021/03/20 07:41:17;;;;;;;0.30;0.30;;;4.10;96.30;;;;;;5094135;28;20297;-66
2021/03/20 07:44:21;;;;;;;0.30;0.30;;;4.10;96.80;;;;;;5093979;28;20179;-68
2021/03/20 07:46:47;;;;;;;0.30;0.30;;;4.60;96.00;;;;;;4997142;28;20205;-68
2021/03/20 07:49:24;;;;;;;0.30;0.30;;;4.90;95.60;;;;;;5092153;28;20196;-71
2021/03/20 07:51:58;;;;;;;0.30;0.30;;;5.00;94.50;;;;;;5089932;28;20294;-72
2021/03/20 07:54:32;;;;;;;0.30;0.20;;;5.40;94.50;;;;;;5092410;28;20628;-68
2021/03/20 07:57:16;;;;;;;0.30;0.30;;;5.60;93.00;;;;;;5090902;28;20217;-69
2021/03/20 07:59:51;;;;;;;0.30;0.30;;;5.60;93.00;;;;;;5091814;28;20172;-69
2021/03/20 08:02:40;;;;;;;0.30;0.30;;;5.10;92.80;;;;;;5087134;28;20176;-68
2021/03/20 08:05:27;;;;;;;0.38;0.38;;;4.90;92.70;;;;;;5089314;28;20181;-70
2021/03/20 08:07:55;;;;;;;0.30;0.30;;;4.80;93.30;;;;;;5090945;28;20230;-70
2021/03/20 08:10:31;;;;;;;0.40;0.40;;;4.60;92.20;;;;;;5091620;28;20553;-67
2021/03/20 08:13:02;;;;;;;0.82;0.82;;;4.40;92.40;;;;;;5086411;28;20176;-70
2021/03/20 08:15:57;;;;;;;0.30;0.30;;;5.40;92.60;;;;;;5090576;28;20218;-68
2021/03/20 08:18:41;;;;;;;0.30;0.30;;;7.20;91.00;;;;;;5082948;28;20262;-71
2021/03/20 08:21:15;;;;;;;0.30;0.20;;;8.50;83.70;;;;;;5093186;28;20187;-71
2021/03/20 08:24:05;;;;;;;0.83;0.83;;;9.30;78.20;;;;;;5093440;28;20433;-69
2021/03/20 08:26:40;;;;;;;0.30;0.30;;;10.40;71.30;;;;;;5093255;28;20448;-68
2021/03/20 08:29:29;;;;;;;0.30;0.30;;;11.40;64.80;;;;;;5092778;28;20469;-70
2021/03/20 08:32:20;;;;;;;0.30;0.30;;;12.00;60.50;;;;;;5073287;28;20413;-73
2021/03/20 08:34:55;;;;;;;0.50;0.50;;;12.10;59.20;;;;;;5085485;28;20426;-71
2021/03/20 08:37:55;;;;;;;0.30;0.30;;;12.50;57.90;;;;;;5092505;28;20420;-69
2021/03/20 08:40:30;;;;;;;0.30;0.20;;;13.00;57.70;;;;;;5092063;28;20568;-70
2021/03/20 08:43:04;;;;;;;0.30;0.30;;;13.40;57.10;;;;;;5093696;28;20489;-67
2021/03/20 08:45:56;;;;;;;0.30;0.30;;;13.90;55.10;;;;;;5091295;28;20955;-69
2021/03/20 08:48:40;;;;;;;0.73;0.73;;;14.00;53.60;;;;;;5092971;28;20510;-69
2021/03/20 08:51:46;;;;;;;0.30;0.20;;;13.40;53.80;;;;;;5089410;28;20410;-70
2021/03/20 08:54:42;;;;;;;0.30;0.30;;;13.40;52.70;;;;;;5072584;28;20407;-69
2021/03/20 08:57:43;;;;;;;0.40;0.40;;;12.20;53.50;;;;;;5073067;28;20425;-71
2021/03/20 09:00:43;;;;;;;0.40;0.40;;;11.60;55.30;;;;;;5078090;28;20950;-71
2021/03/20 09:03:16;;;;;;;0.57;0.50;;;11.70;55.40;;;;;;5087727;28;20410;-69
2021/03/20 09:06:01;;;;;;;0.30;0.30;;;12.60;55.70;;;;;;5091305;28;20500;-69
2021/03/20 09:08:40;;;;;;;0.30;0.30;;;13.10;53.60;;;;;;5092496;28;20478;-71
2021/03/20 09:11:22;;;;;;;0.40;0.40;;;13.20;51.60;;;;;;5095226;28;20443;-70
2021/03/20 09:13:53;;;;;;;0.30;0.30;;;12.60;50.60;;;;;;5096295;28;20535;-72
2021/03/20 09:16:44;;;;;;;0.30;0.20;;;11.30;51.40;;;;;;5096190;28;20525;-73
2021/03/20 09:19:31;;;;;;;0.30;0.30;;;10.80;53.00;;;;;;5096472;28;20393;-71
2021/03/20 09:22:12;;;;;;;0.30;0.30;;;11.60;52.90;;;;;;5077844;28;20498;-70
2021/03/20 09:24:48;;;;;;;0.40;0.40;;;12.90;52.00;;;;;;5095201;28;20456;-72
2021/03/20 09:27:53;;;;;;;0.50;0.50;;;13.80;51.30;;;;;;5096945;28;20855;-70
2021/03/20 09:30:30;;;;;;;0.30;0.20;;;14.10;48.60;;;;;;5096505;28;20860;-71
2021/03/20 09:32:57;;;;;;;0.30;0.20;;;14.30;46.00;;;;;;5096783;28;20397;-71
2021/03/20 09:35:38;;;;;;;0.30;0.30;;;14.60;45.70;;;;;;5096183;28;20472;-69
2021/03/20 09:38:03;;;;;;;0.30;0.27;;;14.90;45.50;;;;;;5096599;28;20818;-71
2021/03/20 09:40:49;;;;;;;2.70;0.30;;;15.20;44.70;;;;;;5096040;28;20454;-70
2021/03/20 09:43:22;;;;;;;2.80;0.30;;;14.90;42.30;;;;;;5096498;28;20167;-70
2021/03/20 09:46:26;;;;;;;2.90;0.50;;;14.70;42.10;;;;;;5095933;28;20882;-73
2021/03/20 09:48:53;;;;;;;2.70;0.30;;;14.10;41.80;;;;;;5087360;28;20458;-70
2021/03/20 09:51:49;;;;;;;2.70;0.40;;;14.60;43.60;;;;;;5092037;28;20414;-69
2021/03/20 09:54:24;;;;;;;2.70;0.30;;;15.10;41.30;;;;;;5095956;28;20574;-72
2021/03/20 09:56:54;;;;;;;2.60;0.30;;;15.40;40.80;;;;;;5075854;28;20424;-70
2021/03/20 09:59:29;;;;;;;2.60;0.30;;;15.20;41.20;;;;;;5088862;28;20764;-71
2021/03/20 10:02:06;;;;;;;2.60;0.30;;;15.50;41.80;;;;;;5096156;28;20397;-74
2021/03/20 10:04:34;;;;;;;2.70;0.40;;;14.70;42.20;;;;;;5094271;28;20493;-71
2021/03/20 10:07:21;;;;;;;2.60;0.30;;;14.20;41.10;;;;;;5096414;28;20409;-72
2021/03/20 10:10:13;;;;;;;2.87;0.50;;;13.20;41.40;;;;;;5096720;28;20804;-71
2021/03/20 10:12:45;;;;;;;2.70;0.50;;;12.80;42.40;;;;;;5096266;28;20395;-70
2021/03/20 10:15:17;;;;;;;2.60;0.30;;;12.30;42.40;;;;;;5095281;28;21042;-69
2021/03/20 10:18:08;;;;;;;3.53;0.77;;;11.90;43.50;;;;;;5095909;28;20768;-70
2021/03/20 10:20:39;;;;;;;2.60;0.30;;;11.60;42.80;;;;;;5082476;28;20478;-72
2021/03/20 10:23:32;;;;;;;2.67;0.30;;;11.50;42.40;;;;;;5084443;28;20416;-70
2021/03/20 10:26:02;;;;;;;2.70;0.40;;;10.60;44.80;;;;;;5075078;28;20568;-71
2021/03/20 10:28:31;;;;;;;2.70;0.40;;;10.40;42.90;;;;;;5077753;28;20443;-72
2021/03/20 10:31:02;;;;;;;2.73;0.40;;;10.60;43.10;;;;;;5095755;28;20394;-72
2021/03/20 10:33:31;;;;;;;3.30;0.83;;;11.20;44.10;;;;;;5095223;28;20412;-72
2021/03/20 10:36:16;;;;;;;2.80;0.80;;;11.20;45.60;;;;;;5093740;28;20434;-71
2021/03/20 10:38:49;;;;;;;2.67;0.30;;;11.30;45.20;;;;;;5095341;28;20477;-71
2021/03/20 10:41:30;;;;;;;2.70;0.30;;;11.50;44.50;;;;;;5090664;28;20425;-71
2021/03/20 10:43:57;;;;;;;2.63;0.33;;;11.60;43.20;;;;;;5088056;28;20412;-72
2021/03/20 10:46:29;;;;;;;2.60;0.30;;;11.60;41.20;;;;;;5095375;28;20782;-75
2021/03/20 10:48:57;;;;;;;2.60;0.30;;;11.30;41.20;;;;;;5093432;28;20480;-74
2021/03/20 10:51:27;;;;;;;2.63;0.40;;;10.90;41.90;;;;;;5096026;28;20419;-73
2021/03/20 10:54:00;;;;;;;2.70;0.40;;;10.90;43.50;;;;;;5094893;28;20531;-71
2021/03/20 10:56:34;;;;;;;2.60;0.30;;;11.20;43.80;;;;;;5095418;28;20423;-72
2021/03/20 10:59:09;;;;;;;2.70;0.57;;;11.40;44.20;;;;;;5094087;28;20419;-74
2021/03/20 11:01:37;;;;;;;2.60;0.40;;;11.70;43.80;;;;;;5093627;28;20422;-72
2021/03/20 11:04:03;;;;;;;2.60;0.30;;;11.70;43.90;;;;;;5092197;28;20479;-73
2021/03/20 11:06:30;;;;;;;2.70;0.40;;;11.10;44.10;;;;;;5094303;28;20433;-74
2021/03/20 11:09:19;;;;;;;3.23;0.70;;;10.40;45.50;;;;;;5093768;28;20460;-71
2021/03/20 11:11:45;;;;;;;2.63;0.30;;;9.70;46.50;;;;;;5093361;28;20450;-72
2021/03/20 11:14:14;;;;;;;2.80;0.60;;;9.90;46.80;;;;;;5092570;28;20421;-71
2021/03/20 11:16:55;;;;;;;2.70;0.40;;;9.80;46.00;;;;;;5094355;28;20487;-72
2021/03/20 11:19:27;;;;;;;2.70;0.30;;;9.30;45.70;;;;;;5094427;28;20430;-73
2021/03/20 11:21:58;;;;;;;2.63;0.30;;;8.80;45.60;;;;;;5093521;28;20211;-75
2021/03/20 11:24:23;;;;;;;2.67;0.30;;;8.30;46.70;;;;;;5088070;28;20659;-69
2021/03/20 11:26:50;;;;;;;2.70;0.70;;;7.40;48.90;;;;;;5074210;28;20302;-72
2021/03/20 11:29:26;;;;;;;2.70;0.30;;;6.90;48.70;;;;;;5083700;28;20200;-71
2021/03/20 11:32:02;;;;;;;2.70;0.40;;;6.50;49.70;;;;;;5094247;28;20179;-71
2021/03/20 11:34:40;;;;;;;3.08;0.95;;;6.20;50.00;;;;;;5094394;28;20169;-73
2021/03/20 11:37:19;;;;;;;2.75;0.40;;;5.80;51.10;;;;;;5092906;28;20735;-68
2021/03/20 11:39:51;;;;;;;2.78;0.50;;;5.50;51.70;;;;;;5093989;28;20175;-72
2021/03/20 11:42:17;;;;;;;2.78;0.43;;;5.20;52.70;;;;;;5094399;28;20163;-72
2021/03/20 11:44:49;;;;;;;2.87;0.40;;;5.20;52.40;;;;;;5093694;28;20172;-71
2021/03/20 11:47:27;;;;;;;2.80;0.40;;;5.20;54.20;;;;;;5093859;28;20468;-71
2021/03/20 11:49:56;;;;;;;2.78;0.40;;;5.20;53.90;;;;;;5091914;28;20664;-72
2021/03/20 11:52:48;;;;;;;2.80;0.40;;;5.20;52.60;;;;;;5093629;28;20201;-73
2021/03/20 11:55:20;;;;;;;2.80;0.40;;;5.10;52.50;;;;;;5038317;28;20211;-73
2021/03/20 11:57:48;;;;;;;2.80;0.40;;;5.20;52.00;;;;;;5073433;28;20172;-71
2021/03/20 12:00:38;;;;;;;3.00;0.73;;;5.10;52.80;;;;;;5088455;28;20270;-71
2021/03/20 12:03:21;;;;;;;2.90;0.50;;;5.10;54.70;;;;;;5097165;28;20189;-71
2021/03/20 12:05:49;;;;;;;2.85;0.40;;;5.10;54.50;;;;;;5091885;28;20230;-72
2021/03/20 12:08:21;;;;;;;2.95;0.40;;;5.20;54.20;;;;;;5091742;28;20199;-71
2021/03/20 12:11:05;;;;;;;2.97;0.40;;;5.20;54.60;;;;;;5092761;28;20171;-73
2021/03/20 12:13:53;;;;;;;2.90;0.40;;;5.30;56.60;;;;;;5093367;28;20260;-74
2021/03/20 12:16:39;;;;;;;2.88;0.40;;;5.50;56.80;;;;;;5093199;28;20734;-72
2021/03/20 12:19:19;;;;;;;3.17;0.82;;;5.70;55.30;;;;;;5093040;28;20172;-75
2021/03/20 12:22:06;;;;;;;2.95;0.40;;;5.70;54.40;;;;;;5084558;28;20534;-71
2021/03/20 12:24:49;;;;;;;2.92;0.40;;;5.70;55.70;;;;;;5092644;28;20203;-73
2021/03/20 12:27:26;;;;;;;2.97;0.30;;;5.80;55.10;;;;;;5093406;28;20550;-72
2021/03/20 12:30:27;;;;;;;2.95;0.40;;;5.80;55.70;;;;;;5093404;28;20168;-73
2021/03/20 12:33:11;;;;;;;5.05;1.00;;;5.80;56.20;;;;;;5089483;28;20196;-72
2021/03/20 12:35:40;;;;;;;2.92;0.40;;;5.80;56.40;;;;;;5091539;28;20188;-72
2021/03/20 12:38:10;;;;;;;3.00;0.30;;;5.90;57.60;;;;;;5092762;28;20172;-72
2021/03/20 12:40:36;;;;;;;3.08;0.40;;;6.10;58.60;;;;;;5092914;28;20174;-72
2021/03/20 12:43:07;;;;;;;3.00;0.30;;;6.30;58.70;;;;;;5092730;28;20181;-69
2021/03/20 12:45:34;;;;;;;3.00;0.30;;;6.30;59.20;;;;;;5091364;28;20229;-69
2021/03/20 12:48:00;;;;;;;3.60;1.60;;;6.30;58.40;;;;;;5091708;28;20305;-67
2021/03/20 12:50:26;;;;;;;3.40;0.70;;;6.30;58.00;;;;;;5092595;28;20173;-70
2021/03/20 12:52:52;;;;;;;3.00;0.30;;;6.30;59.80;;;;;;5086942;28;20172;-73
2021/03/20 12:55:18;;;;;;;3.08;0.40;;;6.40;61.50;;;;;;5092633;28;20419;-67
2021/03/20 12:57:43;;;;;;;3.07;0.30;;;6.50;58.40;;;;;;5089662;28;20226;-75
2021/03/20 13:00:21;;;;;;;3.10;0.70;;;6.50;57.80;;;;;;5091315;28;20202;-67
2021/03/20 13:02:48;;;;;;;3.03;0.40;;;6.50;58.10;;;;;;5092326;28;20184;-69
2021/03/20 13:05:32;;;;;;;3.00;0.40;;;6.30;57.60;;;;;;5090499;28;20200;-68
2021/03/20 13:07:58;;;;;;;3.00;0.40;;;6.00;56.90;;;;;;5092572;28;20196;-73
2021/03/20 13:10:24;;;;;;;3.03;0.30;;;5.70;56.50;;;;;;5092485;28;20691;-72
2021/03/20 13:12:49;;;;;;;3.07;0.50;;;5.50;57.60;;;;;;5091473;28;20436;-75
2021/03/20 13:15:16;;;;;;;3.00;0.37;;;5.50;58.10;;;;;;5091364;28;20439;-71
2021/03/20 13:17:42;;;;;;;3.00;0.30;;;5.50;56.70;;;;;;5091327;28;20230;-70
2021/03/20 13:20:09;;;;;;;3.03;0.40;;;5.60;56.90;;;;;;5090132;28;20204;-69
2021/03/20 13:22:35;;;;;;;3.00;0.40;;;5.60;57.00;;;;;;5085618;28;20172;-65
2021/03/20 13:25:01;;;;;;;3.00;0.40;;;5.80;58.70;;;;;;5090743;28;20515;-67
2021/03/20 13:27:27;;;;;;;3.00;0.40;;;5.90;58.50;;;;;;5092904;28;20437;-66
2021/03/20 13:29:53;;;;;;;2.97;0.40;;;6.00;56.90;;;;;;5092245;28;20410;-68
2021/03/20 13:32:19;;;;;;;3.00;0.40;;;6.20;57.10;;;;;;5092867;28;20160;-68
2021/03/20 13:34:45;;;;;;;3.00;0.40;;;6.20;56.60;;;;;;5091872;28;20176;-69
2021/03/20 13:37:10;;;;;;;3.00;0.40;;;6.20;55.70;;;;;;5090939;28;20338;-69
2021/03/20 13:39:36;;;;;;;3.07;0.40;;;6.10;57.40;;;;;;5091096;28;20570;-69